createdAt,value
2017-02-12T00:00:06.293Z,0
2017-02-12T00:02:06.317Z,0
2017-02-12T00:03:06.348Z,0
2017-02-12T00:04:06.328Z,0
2017-02-12T00:05:06.333Z,0
2017-02-12T00:06:06.367Z,0
2017-02-12T00:08:06.354Z,0
2017-02-12T00:09:06.395Z,0
2017-02-12T00:10:06.395Z,0
2017-02-12T00:11:06.425Z,0
2017-02-12T00:12:06.429Z,0
2017-02-12T00:13:06.450Z,0
2017-02-12T00:14:06.458Z,0
2017-02-12T00:15:06.482Z,0
2017-02-12T00:16:06.465Z,0
2017-02-12T00:17:06.486Z,0
2017-02-12T00:18:06.492Z,0
2017-02-12T00:19:06.505Z,0
2017-02-12T00:21:06.549Z,0
2017-02-12T00:22:06.540Z,0
2017-02-12T00:23:21.097Z,0
2017-02-12T00:24:06.575Z,0
2017-02-12T00:25:06.600Z,0
2017-02-12T00:26:21.103Z,0
2017-02-12T00:27:06.224Z,0
2017-02-12T00:28:06.625Z,0
2017-02-12T00:29:06.650Z,0
2017-02-12T00:30:06.662Z,0
2017-02-12T00:31:06.651Z,0
2017-02-12T00:32:06.300Z,0
2017-02-12T00:33:06.295Z,0
2017-02-12T00:34:06.324Z,0
2017-02-12T00:35:06.740Z,0
2017-02-12T00:36:21.250Z,0
2017-02-12T00:37:21.259Z,0
2017-02-12T00:38:21.254Z,0
2017-02-12T00:40:06.777Z,0
2017-02-12T00:42:06.807Z,0
2017-02-12T00:43:06.821Z,0
2017-02-12T00:44:06.812Z,0
2017-02-12T00:45:06.840Z,0
2017-02-12T00:46:06.855Z,0
2017-02-12T00:47:06.881Z,0
2017-02-12T00:48:06.855Z,0
2017-02-12T00:49:06.894Z,0
2017-02-12T00:50:06.883Z,0
2017-02-12T00:51:06.925Z,0
2017-02-12T00:52:06.917Z,0
2017-02-12T00:53:06.971Z,0
2017-02-12T00:54:06.952Z,0
2017-02-12T00:55:06.969Z,0
2017-02-12T00:56:06.973Z,0
2017-02-12T00:57:06.983Z,0
2017-02-12T00:58:21.521Z,0
2017-02-12T00:59:07.011Z,0
2017-02-12T01:00:07.049Z,0
2017-02-12T01:01:07.021Z,0
2017-02-12T01:02:07.071Z,0
2017-02-12T01:03:07.065Z,0
2017-02-12T01:04:07.088Z,0
2017-02-12T01:05:21.595Z,0
2017-02-12T01:06:07.113Z,0
2017-02-12T01:07:07.120Z,0
2017-02-12T01:08:07.131Z,0
2017-02-12T01:09:07.130Z,0
2017-02-12T01:10:21.682Z,0
2017-02-12T01:11:21.657Z,0
2017-02-12T01:12:21.709Z,0
2017-02-12T01:13:07.171Z,0
2017-02-12T01:14:07.217Z,0
2017-02-12T01:15:21.738Z,0
2017-02-12T01:16:07.233Z,0
2017-02-12T01:17:21.769Z,0
2017-02-12T01:18:07.257Z,0
2017-02-12T01:19:07.280Z,0
2017-02-12T01:20:07.313Z,0
2017-02-12T01:21:07.291Z,0
2017-02-12T01:23:21.840Z,0
2017-02-12T01:24:07.322Z,0
2017-02-12T01:25:07.355Z,0
2017-02-12T01:26:21.860Z,0
2017-02-12T01:27:07.387Z,0
2017-02-12T01:28:06.994Z,0
2017-02-12T01:29:07.391Z,0
2017-02-12T01:30:07.417Z,0
2017-02-12T01:31:07.434Z,0
2017-02-12T01:32:07.459Z,0
2017-02-12T01:33:07.452Z,0
2017-02-12T01:34:21.994Z,0
2017-02-12T01:35:07.457Z,0
2017-02-12T01:36:07.538Z,0
2017-02-12T01:37:07.500Z,0
2017-02-12T01:38:22.024Z,0
2017-02-12T01:39:07.527Z,0
2017-02-12T01:40:07.512Z,0
2017-02-12T01:41:07.532Z,0
2017-02-12T01:42:21.674Z,0
2017-02-12T01:43:22.075Z,0
2017-02-12T01:44:07.589Z,0
2017-02-12T01:45:22.098Z,0
2017-02-12T01:46:07.233Z,0
2017-02-12T01:47:07.591Z,0
2017-02-12T01:48:22.146Z,0
2017-02-12T01:49:07.656Z,0
2017-02-12T01:50:07.683Z,0
2017-02-12T01:51:07.679Z,0
2017-02-12T01:54:07.691Z,0
2017-02-12T01:55:22.237Z,0
2017-02-12T01:56:07.735Z,0
2017-02-12T01:57:07.742Z,0
2017-02-12T01:59:07.776Z,0
2017-02-12T02:01:22.307Z,0
2017-02-12T02:02:07.801Z,0
2017-02-12T02:03:07.842Z,0
2017-02-12T02:04:22.348Z,0
2017-02-12T02:05:22.374Z,0
2017-02-12T02:06:07.460Z,0
2017-02-12T02:07:07.876Z,0
2017-02-12T02:08:22.415Z,0
2017-02-12T02:09:07.898Z,0
2017-02-12T02:10:07.947Z,0
2017-02-12T02:11:07.935Z,0
2017-02-12T02:12:22.438Z,0
2017-02-12T02:13:22.475Z,0
2017-02-12T02:14:07.964Z,0
2017-02-12T02:15:22.486Z,0
2017-02-12T02:16:22.525Z,0
2017-02-12T02:17:07.991Z,0
2017-02-12T02:18:08.035Z,0
2017-02-12T02:19:08.021Z,0
2017-02-12T02:20:22.556Z,0
2017-02-12T02:21:08.052Z,0
2017-02-12T02:22:22.588Z,0
2017-02-12T02:23:07.704Z,0
2017-02-12T02:24:07.686Z,0
2017-02-12T02:26:08.089Z,0
2017-02-12T02:27:07.761Z,0
2017-02-12T02:28:08.139Z,0
2017-02-12T02:29:22.673Z,0
2017-02-12T02:30:07.392Z,0
2017-02-12T02:31:08.172Z,0
2017-02-12T02:33:08.209Z,0
2017-02-12T02:34:08.215Z,0
2017-02-12T02:35:07.849Z,0
2017-02-12T02:36:08.216Z,0
2017-02-12T02:37:22.766Z,0
2017-02-12T02:38:08.269Z,0
2017-02-12T02:39:08.312Z,0
2017-02-12T02:40:07.914Z,0
2017-02-12T02:41:08.306Z,0
2017-02-12T02:42:07.921Z,0
2017-02-12T02:43:08.328Z,0
2017-02-12T02:44:07.957Z,0
2017-02-12T02:45:22.855Z,0
2017-02-12T02:46:07.993Z,0
2017-02-12T02:47:08.476Z,0
2017-02-12T02:48:22.912Z,0
2017-02-12T02:49:22.914Z,0
2017-02-12T02:50:08.442Z,0
2017-02-12T02:51:08.432Z,0
2017-02-12T02:52:22.953Z,0
2017-02-12T02:53:08.476Z,0
2017-02-12T02:54:08.465Z,0
2017-02-12T02:56:08.487Z,0
2017-02-12T02:57:08.487Z,0
2017-02-12T02:58:08.520Z,0
2017-02-12T02:59:08.147Z,0
2017-02-12T03:00:08.547Z,0
2017-02-12T03:01:23.073Z,0
2017-02-12T03:02:23.228Z,0
2017-02-12T03:03:23.103Z,0
2017-02-12T03:04:08.613Z,0
2017-02-12T03:05:08.599Z,0
2017-02-12T03:06:23.144Z,0
2017-02-12T03:07:08.626Z,0
2017-02-12T03:09:08.691Z,0
2017-02-12T03:10:37.311Z,0
2017-02-12T03:11:23.227Z,0
2017-02-12T03:12:08.686Z,0
2017-02-12T03:13:23.237Z,0
2017-02-12T03:14:08.702Z,0
2017-02-12T03:15:08.745Z,0
2017-02-12T03:16:08.747Z,0
2017-02-12T03:17:23.274Z,0
2017-02-12T03:18:08.760Z,0
2017-02-12T03:20:08.793Z,0
2017-02-12T03:21:08.814Z,0
2017-02-12T03:22:23.346Z,0
2017-02-12T03:23:08.843Z,0
2017-02-12T03:24:23.350Z,0
2017-02-12T03:25:08.457Z,0
2017-02-12T03:26:08.880Z,0
2017-02-12T03:27:08.896Z,0
2017-02-12T03:28:23.435Z,0
2017-02-12T03:29:08.902Z,0
2017-02-12T03:30:23.459Z,0
2017-02-12T03:31:23.440Z,0
2017-02-12T03:32:23.076Z,0
2017-02-12T03:33:23.483Z,0
2017-02-12T03:34:08.973Z,0
2017-02-12T03:35:23.485Z,0
2017-02-12T03:36:08.985Z,0
2017-02-12T03:37:09.019Z,0
2017-02-12T03:38:09.015Z,0
2017-02-12T03:39:09.045Z,0
2017-02-12T03:40:23.587Z,0
2017-02-12T03:41:09.069Z,0
2017-02-12T03:42:09.061Z,0
2017-02-12T03:43:09.095Z,0
2017-02-12T03:44:09.093Z,0
2017-02-12T03:45:08.725Z,0
2017-02-12T03:46:09.133Z,0
2017-02-12T03:47:09.124Z,0
2017-02-12T03:48:23.668Z,0
2017-02-12T03:49:09.152Z,0
2017-02-12T03:50:23.706Z,0
2017-02-12T03:51:09.177Z,0
2017-02-12T03:52:23.735Z,0
2017-02-12T03:53:09.228Z,0
2017-02-12T03:54:09.218Z,0
2017-02-12T03:55:09.233Z,0
2017-02-12T03:56:09.266Z,0
2017-02-12T03:57:23.776Z,0
2017-02-12T03:58:09.283Z,0
2017-02-12T03:59:23.821Z,0
2017-02-12T04:00:09.310Z,0
2017-02-12T04:01:09.299Z,0
2017-02-12T04:02:08.948Z,0
2017-02-12T04:03:09.348Z,0
2017-02-12T04:04:23.873Z,0
2017-02-12T04:05:09.360Z,0
2017-02-12T04:06:09.367Z,0
2017-02-12T04:07:23.924Z,0
2017-02-12T04:08:09.395Z,0
2017-02-12T04:09:09.436Z,0
2017-02-12T04:10:09.436Z,0
2017-02-12T04:11:23.958Z,0
2017-02-12T04:12:23.955Z,0
2017-02-12T04:13:23.967Z,0
2017-02-12T04:14:09.096Z,0
2017-02-12T04:15:09.498Z,0
2017-02-12T04:16:09.537Z,0
2017-02-12T04:17:09.522Z,0
2017-02-12T04:18:09.142Z,0
2017-02-12T04:19:09.130Z,0
2017-02-12T04:20:24.066Z,0
2017-02-12T04:21:09.598Z,0
2017-02-12T04:22:09.575Z,0
2017-02-12T04:23:24.103Z,0
2017-02-12T04:24:09.211Z,0
2017-02-12T04:25:09.943Z,0
2017-02-12T04:26:24.161Z,0
2017-02-12T04:27:09.655Z,0
2017-02-12T04:28:09.754Z,0
2017-02-12T04:29:24.178Z,0
2017-02-12T04:31:09.709Z,0
2017-02-12T04:32:09.712Z,0
2017-02-12T04:33:24.237Z,0
2017-02-12T04:34:09.741Z,0
2017-02-12T04:35:24.264Z,0
2017-02-12T04:36:24.277Z,0
2017-02-12T04:37:09.757Z,0
2017-02-12T04:38:24.306Z,0
2017-02-12T04:39:24.306Z,0
2017-02-12T04:40:09.829Z,0
2017-02-12T04:41:09.834Z,0
2017-02-12T04:42:09.830Z,0
2017-02-12T04:43:24.355Z,0
2017-02-12T04:44:09.830Z,0
2017-02-12T04:45:24.395Z,0
2017-02-12T04:46:09.880Z,0
2017-02-12T04:47:09.900Z,0
2017-02-12T04:48:09.534Z,0
2017-02-12T04:49:24.425Z,0
2017-02-12T04:50:09.576Z,0
2017-02-12T04:51:09.947Z,0
2017-02-12T04:52:24.457Z,0
2017-02-12T04:53:09.985Z,0
2017-02-12T04:54:10.015Z,0
2017-02-12T04:55:09.996Z,0
2017-02-12T04:56:24.528Z,0
2017-02-12T04:57:10.027Z,0
2017-02-12T04:58:10.028Z,0
2017-02-12T04:59:09.647Z,0
2017-02-12T05:00:10.058Z,0
2017-02-12T05:01:09.706Z,0
2017-02-12T05:02:09.308Z,0
2017-02-12T05:03:10.082Z,0
2017-02-12T05:04:10.110Z,0
2017-02-12T05:05:09.733Z,0
2017-02-12T05:06:24.637Z,0
2017-02-12T05:07:10.157Z,0
2017-02-12T05:08:24.685Z,0
2017-02-12T05:09:10.167Z,0
2017-02-12T05:10:24.713Z,0
2017-02-12T05:11:10.176Z,0
2017-02-12T05:12:09.818Z,0
2017-02-12T05:13:10.201Z,0
2017-02-12T05:14:10.239Z,0
2017-02-12T05:15:09.845Z,0
2017-02-12T05:16:24.769Z,0
2017-02-12T05:17:24.770Z,0
2017-02-12T05:18:09.891Z,0
2017-02-12T05:19:10.279Z,0
2017-02-12T05:20:10.305Z,0
2017-02-12T05:21:10.313Z,0
2017-02-12T05:22:24.853Z,0
2017-02-12T05:23:24.854Z,0
2017-02-12T05:24:10.363Z,0
2017-02-12T05:25:09.986Z,0
2017-02-12T05:26:10.395Z,0
2017-02-12T05:27:10.394Z,0
2017-02-12T05:28:10.406Z,0
2017-02-12T05:29:10.443Z,0
2017-02-12T05:30:10.041Z,0
2017-02-12T05:31:10.458Z,0
2017-02-12T05:32:24.982Z,0
2017-02-12T05:33:10.475Z,0
2017-02-12T05:34:10.084Z,0
2017-02-12T05:35:25.017Z,0
2017-02-12T05:36:10.507Z,0
2017-02-12T05:37:10.126Z,0
2017-02-12T05:38:10.551Z,0
2017-02-12T05:39:25.045Z,0
2017-02-12T05:40:10.572Z,0
2017-02-12T05:41:10.167Z,0
2017-02-12T05:43:10.209Z,0
2017-02-12T05:45:10.220Z,0
2017-02-12T05:46:09.895Z,0
2017-02-12T05:47:10.644Z,0
2017-02-12T05:48:25.182Z,0
2017-02-12T05:49:10.288Z,0
2017-02-12T05:50:10.313Z,0
2017-02-12T05:51:10.685Z,0
2017-02-12T05:52:10.692Z,0
2017-02-12T05:53:10.329Z,0
2017-02-12T05:54:10.344Z,0
2017-02-12T05:55:25.264Z,0
2017-02-12T05:56:10.350Z,0
2017-02-12T05:57:10.388Z,0
2017-02-12T05:58:25.284Z,0
2017-02-12T05:59:10.801Z,0
2017-02-12T06:00:09.625Z,0
2017-02-12T06:01:10.845Z,0
2017-02-12T06:02:25.347Z,0
2017-02-12T06:03:10.447Z,0
2017-02-12T06:04:10.856Z,0
2017-02-12T06:05:10.465Z,0
2017-02-12T06:06:10.888Z,0
2017-02-12T06:07:10.490Z,0
2017-02-12T06:08:10.916Z,0
2017-02-12T06:09:10.902Z,0
2017-02-12T06:10:10.547Z,0
2017-02-12T06:11:40.007Z,0
2017-02-12T06:12:10.979Z,0
2017-02-12T06:13:10.955Z,0
2017-02-12T06:14:25.497Z,0
2017-02-12T06:16:11.020Z,0
2017-02-12T06:17:11.012Z,0
2017-02-12T06:18:25.563Z,0
2017-02-12T06:19:11.067Z,0
2017-02-12T06:20:11.052Z,0
2017-02-12T06:21:11.064Z,0
2017-02-12T06:22:10.285Z,0
2017-02-12T06:23:11.099Z,0
2017-02-12T06:24:25.613Z,0
2017-02-12T06:25:11.139Z,0
2017-02-12T06:26:25.653Z,0
2017-02-12T06:27:25.654Z,0
2017-02-12T06:28:25.675Z,0
2017-02-12T06:29:25.684Z,0
2017-02-12T06:30:11.177Z,0
2017-02-12T06:31:11.186Z,0
2017-02-12T06:32:11.221Z,0
2017-02-12T06:33:11.230Z,0
2017-02-12T06:34:25.362Z,0
2017-02-12T06:35:25.758Z,0
2017-02-12T06:36:11.256Z,0
2017-02-12T06:37:11.284Z,0
2017-02-12T06:38:11.574Z,0
2017-02-12T06:39:11.307Z,0
2017-02-12T06:40:11.326Z,0
2017-02-12T06:41:11.322Z,0
2017-02-12T06:42:11.353Z,0
2017-02-12T06:43:25.878Z,0
2017-02-12T06:44:25.876Z,0
2017-02-12T06:45:11.367Z,0
2017-02-12T06:46:11.418Z,0
2017-02-12T06:47:11.405Z,0
2017-02-12T06:48:25.921Z,0
2017-02-12T06:50:25.962Z,0
2017-02-12T06:51:11.432Z,0
2017-02-12T06:52:11.473Z,0
2017-02-12T06:53:11.439Z,0
2017-02-12T06:54:11.495Z,0
2017-02-12T06:55:11.483Z,0
2017-02-12T06:56:11.524Z,0
2017-02-12T06:57:11.525Z,0
2017-02-12T06:58:26.062Z,0
2017-02-12T06:59:26.060Z,0
2017-02-12T07:00:11.537Z,0
2017-02-12T07:02:11.182Z,5
2017-02-12T07:03:11.215Z,5
2017-02-12T07:04:11.224Z,5
2017-02-12T07:05:11.683Z,5
2017-02-12T07:06:11.622Z,5
2017-02-12T07:08:11.659Z,5
2017-02-12T07:09:11.670Z,5
2017-02-12T07:11:11.314Z,5
2017-02-12T07:12:11.706Z,5
2017-02-12T07:14:11.344Z,5
2017-02-12T07:15:11.754Z,5
2017-02-12T07:16:11.780Z,5
2017-02-12T07:17:11.755Z,5
2017-02-12T07:18:11.422Z,5
2017-02-12T07:19:11.806Z,5
2017-02-12T07:20:26.339Z,10
2017-02-12T07:21:11.820Z,10
2017-02-12T07:22:11.853Z,10
2017-02-12T07:23:11.827Z,10
2017-02-12T07:24:11.858Z,10
2017-02-12T07:25:11.853Z,10
2017-02-12T07:26:11.897Z,10
2017-02-12T07:27:26.415Z,10
2017-02-12T07:28:11.897Z,10
2017-02-12T07:29:11.926Z,10
2017-02-12T07:30:26.446Z,10
2017-02-12T07:31:26.066Z,10
2017-02-12T07:32:11.948Z,10
2017-02-12T07:33:11.984Z,10
2017-02-12T07:34:26.484Z,10
2017-02-12T07:35:12.001Z,10
2017-02-12T07:36:12.002Z,10
2017-02-12T07:37:12.029Z,10
2017-02-12T07:39:12.068Z,15
2017-02-12T07:40:26.566Z,15
2017-02-12T07:41:12.055Z,15
2017-02-12T07:42:12.088Z,15
2017-02-12T07:43:12.105Z,15
2017-02-12T07:44:11.724Z,15
2017-02-12T07:45:26.674Z,15
2017-02-12T07:46:26.662Z,15
2017-02-12T07:47:12.137Z,15
2017-02-12T07:48:12.165Z,15
2017-02-12T07:49:12.164Z,15
2017-02-12T07:50:26.720Z,20
2017-02-12T07:51:12.209Z,20
2017-02-12T07:52:26.721Z,20
2017-02-12T07:53:11.833Z,20
2017-02-12T07:54:12.206Z,20
2017-02-12T07:55:11.852Z,20
2017-02-12T07:56:12.254Z,20
2017-02-12T07:57:12.291Z,20
2017-02-12T07:58:12.289Z,20
2017-02-12T07:59:12.305Z,20
2017-02-12T08:00:11.518Z,20
2017-02-12T08:01:12.325Z,20
2017-02-12T08:02:26.844Z,20
2017-02-12T08:03:12.344Z,20
2017-02-12T08:05:12.376Z,20
2017-02-12T08:07:26.931Z,20
2017-02-12T08:08:12.428Z,20
2017-02-12T08:10:12.451Z,20
2017-02-12T08:11:12.054Z,25
2017-02-12T08:12:12.223Z,25
2017-02-12T08:13:12.749Z,25
2017-02-12T08:14:12.494Z,25
2017-02-12T08:15:12.500Z,25
2017-02-12T08:16:27.021Z,25
2017-02-12T08:20:12.169Z,25
2017-02-12T08:21:12.180Z,25
2017-02-12T08:22:27.121Z,25
2017-02-12T08:23:12.585Z,25
2017-02-12T08:24:12.228Z,30
2017-02-12T08:25:27.128Z,30
2017-02-12T08:26:12.287Z,30
2017-02-12T08:27:27.149Z,30
2017-02-12T08:28:12.275Z,30
2017-02-12T08:29:12.662Z,30
2017-02-12T08:30:12.691Z,30
2017-02-12T08:31:12.708Z,30
2017-02-12T08:32:12.727Z,30
2017-02-12T08:33:27.222Z,30
2017-02-12T08:34:12.361Z,30
2017-02-12T08:35:27.251Z,35
2017-02-12T08:36:12.770Z,35
2017-02-12T08:37:12.781Z,35
2017-02-12T08:38:12.023Z,35
2017-02-12T08:39:12.824Z,35
2017-02-12T08:40:12.417Z,35
2017-02-12T08:41:27.341Z,35
2017-02-12T08:42:12.846Z,35
2017-02-12T08:43:12.863Z,35
2017-02-12T08:44:12.485Z,35
2017-02-12T08:45:12.478Z,40
2017-02-12T08:46:27.406Z,40
2017-02-12T08:47:12.508Z,40
2017-02-12T08:49:12.937Z,40
2017-02-12T08:50:12.536Z,40
2017-02-12T08:51:12.967Z,40
2017-02-12T08:52:27.087Z,40
2017-02-12T08:53:12.983Z,40
2017-02-12T08:54:27.510Z,40
2017-02-12T08:55:13.022Z,40
2017-02-12T08:56:13.015Z,45
2017-02-12T08:57:13.030Z,45
2017-02-12T08:58:13.040Z,45
2017-02-12T08:59:13.084Z,45
2017-02-12T09:00:27.584Z,45
2017-02-12T09:01:27.617Z,45
2017-02-12T09:02:13.079Z,45
2017-02-12T09:04:13.154Z,50
2017-02-12T09:05:27.651Z,50
2017-02-12T09:06:12.770Z,50
2017-02-12T09:07:27.670Z,50
2017-02-12T09:08:13.195Z,50
2017-02-12T09:09:27.306Z,50
2017-02-12T09:10:12.813Z,50
2017-02-12T09:11:12.826Z,50
2017-02-12T09:12:12.850Z,50
2017-02-12T09:13:13.263Z,50
2017-02-12T09:14:12.856Z,50
2017-02-12T09:15:13.319Z,50
2017-02-12T09:16:27.791Z,50
2017-02-12T09:17:27.811Z,50
2017-02-12T09:18:13.315Z,50
2017-02-12T09:19:12.943Z,50
2017-02-12T09:20:12.558Z,50
2017-02-12T09:21:27.852Z,50
2017-02-12T09:22:13.373Z,50
2017-02-12T09:23:12.991Z,50
2017-02-12T09:24:13.385Z,50
2017-02-12T09:25:13.018Z,50
2017-02-12T09:26:12.993Z,55
2017-02-12T09:27:13.037Z,55
2017-02-12T09:28:13.047Z,55
2017-02-12T09:29:13.091Z,55
2017-02-12T09:30:13.478Z,55
2017-02-12T09:31:13.527Z,55
2017-02-12T09:32:12.710Z,55
2017-02-12T09:33:27.612Z,55
2017-02-12T09:34:13.151Z,55
2017-02-12T09:35:13.525Z,55
2017-02-12T09:36:13.562Z,55
2017-02-12T09:37:28.072Z,55
2017-02-12T09:38:28.091Z,55
2017-02-12T09:39:28.186Z,55
2017-02-12T09:40:28.099Z,55
2017-02-12T09:41:13.227Z,55
2017-02-12T09:42:13.618Z,55
2017-02-12T09:43:13.652Z,55
2017-02-12T09:44:13.645Z,55
2017-02-12T09:45:13.682Z,55
2017-02-12T09:46:13.267Z,55
2017-02-12T09:47:13.688Z,55
2017-02-12T09:48:13.604Z,55
2017-02-12T09:49:13.320Z,55
2017-02-12T09:51:13.760Z,55
2017-02-12T09:52:28.270Z,55
2017-02-12T09:53:28.305Z,55
2017-02-12T09:54:13.402Z,55
2017-02-12T09:55:13.799Z,60
2017-02-12T09:56:13.806Z,60
2017-02-12T09:57:13.428Z,60
2017-02-12T09:58:28.363Z,60
2017-02-12T09:59:28.359Z,60
2017-02-12T10:00:13.113Z,60
2017-02-12T10:01:13.893Z,65
2017-02-12T10:02:13.905Z,65
2017-02-12T10:03:13.889Z,65
2017-02-12T10:04:13.526Z,65
2017-02-12T10:05:13.935Z,65
2017-02-12T10:06:13.598Z,65
2017-02-12T10:07:13.595Z,65
2017-02-12T10:08:28.481Z,65
2017-02-12T10:09:14.013Z,65
2017-02-12T10:10:13.993Z,65
2017-02-12T10:11:13.626Z,65
2017-02-12T10:12:13.631Z,65
2017-02-12T10:13:13.277Z,65
2017-02-12T10:14:14.068Z,65
2017-02-12T10:15:14.089Z,65
2017-02-12T10:16:13.684Z,65
2017-02-12T10:17:28.671Z,70
2017-02-12T10:18:14.110Z,70
2017-02-12T10:19:14.129Z,70
2017-02-12T10:20:14.130Z,70
2017-02-12T10:22:13.760Z,70
2017-02-12T10:23:28.324Z,70
2017-02-12T10:24:28.713Z,70
2017-02-12T10:25:13.811Z,70
2017-02-12T10:26:13.849Z,70
2017-02-12T10:28:14.260Z,75
2017-02-12T10:30:14.285Z,75
2017-02-12T10:31:13.896Z,75
2017-02-12T10:32:28.830Z,75
2017-02-12T10:33:14.323Z,75
2017-02-12T10:34:13.961Z,75
2017-02-12T10:35:14.557Z,75
2017-02-12T10:36:13.973Z,75
2017-02-12T10:37:13.977Z,75
2017-02-12T10:38:14.011Z,75
2017-02-12T10:39:13.993Z,80
2017-02-12T10:40:28.945Z,80
2017-02-12T10:41:14.432Z,80
2017-02-12T10:42:28.965Z,80
2017-02-12T10:43:14.467Z,80
2017-02-12T10:44:28.995Z,75
2017-02-12T10:46:14.499Z,75
2017-02-12T10:47:14.498Z,75
2017-02-12T10:48:14.515Z,80
2017-02-12T10:49:29.066Z,80
2017-02-12T10:50:14.535Z,80
2017-02-12T10:51:14.583Z,80
2017-02-12T10:52:14.625Z,80
2017-02-12T10:53:14.229Z,80
2017-02-12T10:54:14.214Z,80
2017-02-12T10:55:14.236Z,80
2017-02-12T10:56:29.140Z,80
2017-02-12T10:57:14.664Z,80
2017-02-12T10:58:13.898Z,80
2017-02-12T10:59:14.273Z,80
2017-02-12T11:00:14.684Z,80
2017-02-12T11:01:14.686Z,80
2017-02-12T11:02:13.947Z,85
2017-02-12T11:03:14.750Z,85
2017-02-12T11:04:14.768Z,85
2017-02-12T11:05:14.763Z,85
2017-02-12T11:06:14.390Z,85
2017-02-12T11:07:14.783Z,85
2017-02-12T11:08:14.817Z,85
2017-02-12T11:09:14.806Z,85
2017-02-12T11:10:14.058Z,85
2017-02-12T11:11:14.853Z,85
2017-02-12T11:12:29.381Z,85
2017-02-12T11:13:14.503Z,85
2017-02-12T11:15:29.417Z,85
2017-02-12T11:16:14.528Z,85
2017-02-12T11:17:14.523Z,85
2017-02-12T11:18:14.549Z,85
2017-02-12T11:19:14.973Z,85
2017-02-12T11:20:29.503Z,85
2017-02-12T11:22:14.592Z,85
2017-02-12T11:23:14.249Z,85
2017-02-12T11:24:14.615Z,85
2017-02-12T11:25:14.260Z,85
2017-02-12T11:26:15.047Z,85
2017-02-12T11:27:29.595Z,85
2017-02-12T11:28:29.617Z,85
2017-02-12T11:29:29.595Z,85
2017-02-12T11:30:29.251Z,85
2017-02-12T11:31:15.109Z,85
2017-02-12T11:32:14.745Z,85
2017-02-12T11:33:14.767Z,85
2017-02-12T11:34:15.179Z,85
2017-02-12T11:35:14.806Z,85
2017-02-12T11:36:14.793Z,85
2017-02-12T11:37:29.341Z,85
2017-02-12T11:39:29.356Z,85
2017-02-12T11:40:15.273Z,85
2017-02-12T11:41:15.271Z,85
2017-02-12T11:42:14.503Z,85
2017-02-12T11:43:44.341Z,85
2017-02-12T11:44:15.303Z,85
2017-02-12T11:45:14.941Z,90
2017-02-12T11:46:14.942Z,85
2017-02-12T11:47:29.890Z,85
2017-02-12T11:48:15.373Z,85
2017-02-12T11:49:14.993Z,95
2017-02-12T11:50:29.926Z,90
2017-02-12T11:51:15.408Z,85
2017-02-12T11:53:15.452Z,90
2017-02-12T11:54:15.061Z,85
2017-02-12T11:55:15.476Z,85
2017-02-12T11:56:15.483Z,85
2017-02-12T11:57:15.511Z,85
2017-02-12T11:59:14.784Z,85
2017-02-12T12:00:15.149Z,85
2017-02-12T12:01:15.174Z,90
2017-02-12T12:02:15.559Z,90
2017-02-12T12:03:30.120Z,85
2017-02-12T12:04:30.114Z,85
2017-02-12T12:05:15.254Z,90
2017-02-12T12:06:15.603Z,95
2017-02-12T12:07:30.160Z,90
2017-02-12T12:08:15.671Z,90
2017-02-12T12:09:15.690Z,85
2017-02-12T12:10:15.277Z,85
2017-02-12T12:11:15.332Z,85
2017-02-12T12:12:15.703Z,85
2017-02-12T12:13:30.275Z,80
2017-02-12T12:14:15.349Z,80
2017-02-12T12:15:44.799Z,80
2017-02-12T12:16:30.308Z,80
2017-02-12T12:17:15.794Z,85
2017-02-12T12:18:15.815Z,85
2017-02-12T12:19:15.836Z,85
2017-02-12T12:20:15.441Z,85
2017-02-12T12:21:15.522Z,85
2017-02-12T12:22:15.858Z,85
2017-02-12T12:23:15.475Z,90
2017-02-12T12:24:15.506Z,90
2017-02-12T12:25:15.911Z,90
2017-02-12T12:26:15.545Z,90
2017-02-12T12:28:15.963Z,90
2017-02-12T12:29:30.097Z,90
2017-02-12T12:30:15.989Z,90
2017-02-12T12:32:30.123Z,90
2017-02-12T12:33:16.032Z,90
2017-02-12T12:34:16.076Z,90
2017-02-12T12:35:16.038Z,90
2017-02-12T12:37:16.094Z,90
2017-02-12T12:38:15.688Z,85
2017-02-12T12:39:15.729Z,85
2017-02-12T12:40:30.619Z,85
2017-02-12T12:41:15.769Z,85
2017-02-12T12:42:15.745Z,85
2017-02-12T12:43:16.205Z,85
2017-02-12T12:44:15.789Z,85
2017-02-12T12:45:15.806Z,85
2017-02-12T12:46:16.183Z,85
2017-02-12T12:47:30.730Z,85
2017-02-12T12:48:16.246Z,85
2017-02-12T12:49:16.271Z,85
2017-02-12T12:50:30.789Z,85
2017-02-12T12:51:16.290Z,85
2017-02-12T12:52:15.910Z,85
2017-02-12T12:53:15.901Z,85
2017-02-12T12:54:15.972Z,85
2017-02-12T12:55:15.967Z,85
2017-02-12T12:56:16.357Z,85
2017-02-12T12:57:16.409Z,85
2017-02-12T12:58:15.980Z,85
2017-02-12T12:59:16.029Z,80
2017-02-12T13:00:16.030Z,80
2017-02-12T13:02:16.050Z,80
2017-02-12T13:03:30.570Z,75
2017-02-12T13:04:15.683Z,75
2017-02-12T13:05:30.987Z,75
2017-02-12T13:06:16.110Z,75
2017-02-12T13:07:16.122Z,70
2017-02-12T13:08:16.532Z,70
2017-02-12T13:09:16.582Z,70
2017-02-12T13:10:16.546Z,70
2017-02-12T13:11:16.586Z,70
2017-02-12T13:14:16.240Z,70
2017-02-12T13:16:16.641Z,70
2017-02-12T13:17:16.670Z,70
2017-02-12T13:18:31.184Z,70
2017-02-12T13:19:16.681Z,65
2017-02-12T13:20:30.831Z,65
2017-02-12T13:21:31.244Z,65
2017-02-12T13:22:16.772Z,65
2017-02-12T13:24:16.740Z,65
2017-02-12T13:25:16.762Z,65
2017-02-12T13:26:16.776Z,65
2017-02-12T13:27:16.816Z,65
2017-02-12T13:28:16.807Z,60
2017-02-12T13:30:16.438Z,60
2017-02-12T13:31:16.901Z,60
2017-02-12T13:33:16.916Z,60
2017-02-12T13:34:16.110Z,60
2017-02-12T13:35:31.418Z,60
2017-02-12T13:36:16.938Z,60
2017-02-12T13:37:16.972Z,65
2017-02-12T13:38:16.980Z,60
2017-02-12T13:40:16.986Z,60
2017-02-12T13:41:31.116Z,60
2017-02-12T13:42:17.315Z,60
2017-02-12T13:43:16.234Z,60
2017-02-12T13:44:17.053Z,60
2017-02-12T13:45:17.072Z,55
2017-02-12T13:46:16.283Z,60
2017-02-12T13:47:16.718Z,50
2017-02-12T13:48:16.315Z,50
2017-02-12T13:49:17.138Z,50
2017-02-12T13:50:31.636Z,50
2017-02-12T13:51:16.830Z,50
2017-02-12T13:52:17.147Z,55
2017-02-12T13:53:17.195Z,50
2017-02-12T13:54:16.787Z,50
2017-02-12T13:55:31.748Z,50
2017-02-12T13:56:16.424Z,45
2017-02-12T13:57:16.821Z,50
2017-02-12T13:59:31.850Z,50
2017-02-12T14:00:17.271Z,50
2017-02-12T14:01:17.312Z,45
2017-02-12T14:02:16.895Z,45
2017-02-12T14:03:16.930Z,45
2017-02-12T14:04:17.317Z,45
2017-02-12T14:05:31.861Z,45
2017-02-12T14:06:31.487Z,45
2017-02-12T14:07:31.905Z,45
2017-02-12T14:08:17.004Z,45
2017-02-12T14:09:17.416Z,45
2017-02-12T14:10:17.421Z,45
2017-02-12T14:11:17.430Z,45
2017-02-12T14:12:17.434Z,40
2017-02-12T14:13:31.993Z,40
2017-02-12T14:14:17.073Z,40
2017-02-12T14:15:17.500Z,40
2017-02-12T14:16:17.085Z,40
2017-02-12T14:17:17.524Z,40
2017-02-12T14:18:17.108Z,40
2017-02-12T14:19:17.161Z,35
2017-02-12T14:20:32.059Z,35
2017-02-12T14:21:32.092Z,35
2017-02-12T14:22:32.087Z,35
2017-02-12T14:23:17.615Z,35
2017-02-12T14:24:16.815Z,35
2017-02-12T14:25:17.639Z,35
2017-02-12T14:26:17.251Z,35
2017-02-12T14:27:32.171Z,35
2017-02-12T14:28:17.652Z,35
2017-02-12T14:29:17.315Z,35
2017-02-12T14:30:17.734Z,30
2017-02-12T14:31:17.742Z,30
2017-02-12T14:32:17.775Z,30
2017-02-12T14:34:17.765Z,30
2017-02-12T14:35:17.364Z,30
2017-02-12T14:36:17.398Z,30
2017-02-12T14:37:17.396Z,30
2017-02-12T14:38:32.339Z,25
2017-02-12T14:39:17.442Z,25
2017-02-12T14:40:17.434Z,25
2017-02-12T14:41:17.850Z,25
2017-02-12T14:42:17.850Z,25
2017-02-12T14:43:17.893Z,25
2017-02-12T14:44:17.891Z,25
2017-02-12T14:45:17.529Z,25
2017-02-12T14:46:32.433Z,25
2017-02-12T14:47:17.951Z,25
2017-02-12T14:48:17.539Z,20
2017-02-12T14:49:17.177Z,20
2017-02-12T14:50:17.978Z,20
2017-02-12T14:51:32.117Z,20
2017-02-12T14:52:17.996Z,20
2017-02-12T14:53:32.543Z,20
2017-02-12T14:54:32.530Z,20
2017-02-12T14:55:17.656Z,20
2017-02-12T14:56:17.280Z,20
2017-02-12T14:57:17.688Z,20
2017-02-12T14:58:32.216Z,20
2017-02-12T14:59:18.090Z,20
2017-02-12T15:01:18.129Z,15
2017-02-12T15:02:18.160Z,15
2017-02-12T15:03:17.743Z,15
2017-02-12T15:04:17.788Z,15
2017-02-12T15:05:17.380Z,15
2017-02-12T15:06:18.210Z,15
2017-02-12T15:08:17.838Z,15
2017-02-12T15:09:17.860Z,15
2017-02-12T15:11:18.352Z,15
2017-02-12T15:13:17.894Z,15
2017-02-12T15:14:17.914Z,15
2017-02-12T15:15:18.342Z,15
2017-02-12T15:16:18.314Z,15
2017-02-12T15:17:17.959Z,15
2017-02-12T15:18:18.353Z,15
2017-02-12T15:19:17.996Z,15
2017-02-12T15:20:18.375Z,15
2017-02-12T15:21:18.423Z,15
2017-02-12T15:22:18.015Z,15
2017-02-12T15:23:18.454Z,15
2017-02-12T15:24:18.034Z,15
2017-02-12T15:25:32.601Z,10
2017-02-12T15:26:18.479Z,10
2017-02-12T15:27:18.478Z,10
2017-02-12T15:28:18.102Z,10
2017-02-12T15:29:18.123Z,10
2017-02-12T15:30:18.537Z,10